createdAt,value
2023-05-11T00:00:17.801Z,0.00
2023-05-11T00:01:17.621Z,0.00
2023-05-11T00:02:17.711Z,0.00
2023-05-11T00:03:17.922Z,0.00
2023-05-11T00:04:17.627Z,0.00
2023-05-11T00:05:17.598Z,0.00
2023-05-11T00:06:17.600Z,0.00
2023-05-11T00:07:17.551Z,0.00
2023-05-11T00:08:17.624Z,0.00
2023-05-11T00:09:17.524Z,0.00
2023-05-11T00:10:17.649Z,0.00
2023-05-11T00:11:17.523Z,0.00
2023-05-11T00:12:17.527Z,0.00
2023-05-11T00:13:17.501Z,0.00
2023-05-11T00:14:17.512Z,0.00
2023-05-11T00:15:17.477Z,0.00
2023-05-11T00:16:17.501Z,0.00
2023-05-11T00:17:17.463Z,0.00
2023-05-11T00:18:17.516Z,0.00
2023-05-11T00:19:17.461Z,0.00
2023-05-11T00:20:17.666Z,0.00
2023-05-11T00:21:17.438Z,0.00
2023-05-11T00:22:17.407Z,0.00
2023-05-11T00:23:17.414Z,0.00
2023-05-11T00:24:17.382Z,0.00
2023-05-11T00:25:17.375Z,0.00
2023-05-11T00:26:17.366Z,0.00
2023-05-11T00:27:17.347Z,0.00
2023-05-11T00:28:17.356Z,0.00
2023-05-11T00:29:17.340Z,0.00
2023-05-11T00:30:17.695Z,0.00
2023-05-11T00:31:17.352Z,0.00
2023-05-11T00:32:17.294Z,0.00
2023-05-11T00:33:17.285Z,0.00
2023-05-11T00:34:17.271Z,0.00
2023-05-11T00:35:17.239Z,0.00
2023-05-11T00:36:17.249Z,0.00
2023-05-11T00:37:17.276Z,0.00
2023-05-11T00:38:17.241Z,0.00
2023-05-11T00:39:17.202Z,0.00
2023-05-11T00:40:17.484Z,0.00
2023-05-11T00:41:17.216Z,0.00
2023-05-11T00:42:17.226Z,0.00
2023-05-11T00:43:17.159Z,0.00
2023-05-11T00:44:17.148Z,0.00
2023-05-11T00:45:17.161Z,0.00
2023-05-11T00:46:17.150Z,0.00
2023-05-11T00:47:17.117Z,0.00
2023-05-11T00:48:17.144Z,0.00
2023-05-11T00:49:17.141Z,0.00
2023-05-11T00:50:17.385Z,0.00
2023-05-11T00:51:17.074Z,0.00
2023-05-11T00:52:17.073Z,0.00
2023-05-11T00:53:17.072Z,0.00
2023-05-11T00:54:17.070Z,0.00
2023-05-11T00:55:17.052Z,0.00
2023-05-11T00:56:17.046Z,0.00
2023-05-11T00:57:17.030Z,0.00
2023-05-11T00:58:17.042Z,0.00
2023-05-11T00:59:16.999Z,0.00
2023-05-11T01:00:17.334Z,0.00
2023-05-11T01:01:16.994Z,0.00
2023-05-11T01:02:17.032Z,0.00
2023-05-11T01:03:17.073Z,0.00
2023-05-11T01:04:16.970Z,0.00
2023-05-11T01:05:16.923Z,0.00
2023-05-11T01:06:16.906Z,0.00
2023-05-11T01:07:16.918Z,0.00
2023-05-11T01:08:16.908Z,0.00
2023-05-11T01:09:16.913Z,0.00
2023-05-11T01:10:17.189Z,0.00
2023-05-11T01:11:16.919Z,0.00
2023-05-11T01:12:16.872Z,0.00
2023-05-11T01:13:16.865Z,0.00
2023-05-11T01:14:16.944Z,0.00
2023-05-11T01:15:16.847Z,0.00
2023-05-11T01:16:16.836Z,0.00
2023-05-11T01:17:16.815Z,0.00
2023-05-11T01:18:16.915Z,0.00
2023-05-11T01:19:16.805Z,0.00
2023-05-11T01:20:17.097Z,0.00
2023-05-11T01:21:16.805Z,0.00
2023-05-11T01:22:16.838Z,0.00
2023-05-11T01:23:16.763Z,0.00
2023-05-11T01:24:16.748Z,0.00
2023-05-11T01:25:16.795Z,0.00
2023-05-11T01:26:16.710Z,0.00
2023-05-11T01:27:16.692Z,0.00
2023-05-11T01:28:16.681Z,0.00
2023-05-11T01:29:16.712Z,0.00
2023-05-11T01:30:16.966Z,0.00
2023-05-11T01:31:16.665Z,0.00
2023-05-11T01:32:16.706Z,0.00
2023-05-11T01:33:16.703Z,0.00
2023-05-11T01:34:16.641Z,0.00
2023-05-11T01:35:16.625Z,0.00
2023-05-11T01:36:16.625Z,0.00
2023-05-11T01:37:16.595Z,0.00
2023-05-11T01:38:16.592Z,0.00
2023-05-11T01:39:16.576Z,0.00
2023-05-11T01:40:16.838Z,0.00
2023-05-11T01:41:16.587Z,0.00
2023-05-11T01:42:16.555Z,0.00
2023-05-11T01:43:16.546Z,0.00
2023-05-11T01:44:16.540Z,0.00
2023-05-11T01:45:16.532Z,0.00
2023-05-11T01:46:16.606Z,0.00
2023-05-11T01:47:16.497Z,0.00
2023-05-11T01:48:16.492Z,0.00
2023-05-11T01:49:16.486Z,0.00
2023-05-11T01:50:16.714Z,0.00
2023-05-11T01:51:16.496Z,0.00
2023-05-11T01:52:16.483Z,0.00
2023-05-11T01:53:16.446Z,0.00
2023-05-11T01:54:16.428Z,0.00
2023-05-11T01:55:16.410Z,0.00
2023-05-11T01:56:16.390Z,0.00
2023-05-11T01:57:16.434Z,0.00
2023-05-11T01:58:16.415Z,0.00
2023-05-11T01:59:16.385Z,0.00
2023-05-11T02:00:16.558Z,0.00
2023-05-11T02:01:16.449Z,0.00
2023-05-11T02:02:16.384Z,0.00
2023-05-11T02:03:16.465Z,0.00
2023-05-11T02:04:16.317Z,0.00
2023-05-11T02:05:16.310Z,0.00
2023-05-11T02:06:16.289Z,0.00
2023-05-11T02:07:16.282Z,0.00
2023-05-11T02:08:16.296Z,0.00
2023-05-11T02:09:16.281Z,0.00
2023-05-11T02:10:16.475Z,0.00
2023-05-11T02:11:16.243Z,0.00
2023-05-11T02:12:16.302Z,0.00
2023-05-11T02:13:16.233Z,0.00
2023-05-11T02:14:16.204Z,0.00
2023-05-11T02:15:16.185Z,0.00
2023-05-11T02:16:16.212Z,0.00
2023-05-11T02:17:16.214Z,0.00
2023-05-11T02:18:16.167Z,0.00
2023-05-11T02:19:16.189Z,0.00
2023-05-11T02:20:16.162Z,0.00
2023-05-11T02:21:16.204Z,0.00
2023-05-11T02:22:16.130Z,0.00
2023-05-11T02:23:16.156Z,0.00
2023-05-11T02:24:16.114Z,0.00
2023-05-11T02:25:16.101Z,0.00
2023-05-11T02:26:16.120Z,0.00
2023-05-11T02:27:16.043Z,1.00
2023-05-11T02:28:16.052Z,0.00
2023-05-11T02:29:16.052Z,0.00
2023-05-11T02:30:16.245Z,0.00
2023-05-11T02:31:16.048Z,0.00
2023-05-11T02:32:15.984Z,1.00
2023-05-11T02:33:15.962Z,1.00
2023-05-11T02:34:15.957Z,1.00
2023-05-11T02:35:15.982Z,1.00
2023-05-11T02:36:15.969Z,1.00
2023-05-11T02:37:15.984Z,0.00
2023-05-11T02:38:15.982Z,0.00
2023-05-11T02:39:15.933Z,2.00
2023-05-11T02:40:16.116Z,2.00
2023-05-11T02:41:15.908Z,1.00
2023-05-11T02:42:15.900Z,1.00
2023-05-11T02:43:15.947Z,2.00
2023-05-11T02:44:15.858Z,1.00
2023-05-11T02:45:15.852Z,1.00
2023-05-11T02:46:15.863Z,4.00
2023-05-11T02:47:15.848Z,3.00
2023-05-11T02:48:15.829Z,5.00
2023-05-11T02:49:15.839Z,4.00
2023-05-11T02:50:15.837Z,2.00
2023-05-11T02:51:15.785Z,5.00
2023-05-11T02:52:15.759Z,6.00
2023-05-11T02:53:15.754Z,6.00
2023-05-11T02:54:15.767Z,7.00
2023-05-11T02:55:15.812Z,7.00
2023-05-11T02:56:15.745Z,8.00
2023-05-11T02:57:15.716Z,11.00
2023-05-11T02:58:15.779Z,17.00
2023-05-11T02:59:15.745Z,19.00
2023-05-11T03:00:15.764Z,18.00
2023-05-11T03:01:15.759Z,23.00
2023-05-11T03:02:15.792Z,27.00
2023-05-11T03:03:15.759Z,26.00
2023-05-11T03:04:15.681Z,31.00
2023-05-11T03:05:15.628Z,38.00
2023-05-11T03:06:15.620Z,42.00
2023-05-11T03:07:15.599Z,50.00
2023-05-11T03:08:15.635Z,54.00
2023-05-11T03:09:15.621Z,64.00
2023-05-11T03:10:15.635Z,70.00
2023-05-11T03:11:15.577Z,76.00
2023-05-11T03:12:15.552Z,89.00
2023-05-11T03:13:15.559Z,100.00
2023-05-11T03:14:15.575Z,107.00
2023-05-11T03:15:15.546Z,119.00
2023-05-11T03:16:15.553Z,131.00
2023-05-11T03:17:15.531Z,144.00
2023-05-11T03:18:15.482Z,157.00
2023-05-11T03:19:15.496Z,172.00
2023-05-11T03:20:15.542Z,190.00
2023-05-11T03:21:15.467Z,203.00
2023-05-11T03:22:15.465Z,215.00
2023-05-11T03:23:15.466Z,227.00
2023-05-11T03:24:15.472Z,242.00
2023-05-11T03:25:15.415Z,250.00
2023-05-11T03:26:15.430Z,272.00
2023-05-11T03:27:15.467Z,289.00
2023-05-11T03:28:15.380Z,317.00
2023-05-11T03:29:15.438Z,336.00
2023-05-11T03:30:15.428Z,358.00
2023-05-11T03:31:15.369Z,379.00
2023-05-11T03:32:15.516Z,397.00
2023-05-11T03:33:15.359Z,420.00
2023-05-11T03:34:15.349Z,433.00
2023-05-11T03:35:15.316Z,456.00
2023-05-11T03:36:15.329Z,481.00
2023-05-11T03:37:15.325Z,508.00
2023-05-11T03:38:15.321Z,542.00
2023-05-11T03:39:15.321Z,574.00
2023-05-11T03:40:15.344Z,606.00
2023-05-11T03:41:15.270Z,635.00
2023-05-11T03:42:15.254Z,667.00
2023-05-11T03:43:15.239Z,699.00
2023-05-11T03:44:15.255Z,731.00
2023-05-11T03:45:15.220Z,769.00
2023-05-11T03:46:15.260Z,793.00
2023-05-11T03:47:15.184Z,820.00
2023-05-11T03:48:15.230Z,849.00
2023-05-11T03:49:15.204Z,879.00
2023-05-11T03:50:15.197Z,911.00
2023-05-11T03:51:15.187Z,941.00
2023-05-11T03:52:15.137Z,970.00
2023-05-11T03:53:15.154Z,1012.00
2023-05-11T03:54:15.144Z,1038.00
2023-05-11T03:55:15.159Z,1069.00
2023-05-11T03:56:15.127Z,1106.00
2023-05-11T03:57:15.124Z,1141.00
2023-05-11T03:58:15.085Z,1186.00
2023-05-11T03:59:15.120Z,1223.00
2023-05-11T04:00:15.126Z,1263.00
2023-05-11T04:01:15.073Z,1294.00
2023-05-11T04:02:15.043Z,1342.00
2023-05-11T04:03:15.174Z,1375.00
2023-05-11T04:04:15.130Z,1402.00
2023-05-11T04:05:15.050Z,1450.00
2023-05-11T04:06:14.988Z,1477.00
2023-05-11T04:07:14.974Z,1525.00
2023-05-11T04:08:14.999Z,1561.00
2023-05-11T04:09:14.986Z,1600.00
2023-05-11T04:10:14.975Z,1633.00
2023-05-11T04:11:14.949Z,1673.00
2023-05-11T04:12:14.951Z,1695.00
2023-05-11T04:13:14.916Z,1739.00
2023-05-11T04:14:14.944Z,1763.00
2023-05-11T04:15:14.883Z,1810.00
2023-05-11T04:16:14.939Z,1834.00
2023-05-11T04:17:14.914Z,1825.00
2023-05-11T04:18:15.133Z,1251.00
2023-05-11T04:19:14.904Z,1033.00
2023-05-11T04:20:14.855Z,2271.00
2023-05-11T04:21:14.838Z,2837.00
2023-05-11T04:22:14.844Z,2403.00
2023-05-11T04:23:14.840Z,2196.00
2023-05-11T04:24:15.505Z,2166.00
2023-05-11T04:25:14.815Z,2197.00
2023-05-11T04:26:14.885Z,2224.00
2023-05-11T04:27:14.792Z,2264.00
2023-05-11T04:28:14.811Z,2303.00
2023-05-11T04:29:14.819Z,2343.00
2023-05-11T04:30:14.773Z,2353.00
2023-05-11T04:31:14.854Z,2397.00
2023-05-11T04:32:14.787Z,2425.00
2023-05-11T04:33:14.748Z,2462.00
2023-05-11T04:34:14.744Z,2504.00
2023-05-11T04:35:14.719Z,2548.00
2023-05-11T04:36:14.678Z,2579.00
2023-05-11T04:37:14.690Z,2606.00
2023-05-11T04:38:14.678Z,2659.00
2023-05-11T04:39:14.676Z,2715.00
2023-05-11T04:40:14.673Z,2734.00
2023-05-11T04:41:14.641Z,2778.00
2023-05-11T04:42:14.681Z,2833.00
2023-05-11T04:43:14.652Z,2837.00
2023-05-11T04:44:14.628Z,2851.00
2023-05-11T04:45:14.588Z,2904.00
2023-05-11T04:46:14.658Z,2941.00
2023-05-11T04:47:14.614Z,2980.00
2023-05-11T04:48:14.578Z,2990.00
2023-05-11T04:49:14.561Z,3042.00
2023-05-11T04:50:14.541Z,3100.00
2023-05-11T04:51:14.521Z,3092.00
2023-05-11T04:52:14.559Z,3096.00
2023-05-11T04:53:14.550Z,2231.00
2023-05-11T04:54:14.479Z,1678.00
2023-05-11T04:55:14.497Z,3768.00
2023-05-11T04:56:14.491Z,5578.00
2023-05-11T04:57:14.502Z,10955.00
2023-05-11T04:58:14.459Z,16014.00
2023-05-11T04:59:14.458Z,13688.00
2023-05-11T05:00:14.712Z,13218.00
2023-05-11T05:01:14.740Z,12482.00
2023-05-11T05:02:14.491Z,13286.00
2023-05-11T05:03:14.505Z,17827.00
2023-05-11T05:04:14.495Z,15527.00
2023-05-11T05:05:14.420Z,10722.00
2023-05-11T05:06:14.427Z,18449.00
2023-05-11T05:07:14.378Z,8246.00
2023-05-11T05:08:14.371Z,16108.00
2023-05-11T05:09:14.356Z,75058.00
2023-05-11T05:10:14.365Z,18632.00
2023-05-11T05:11:14.356Z,13933.00
2023-05-11T05:12:14.334Z,79981.00
2023-05-11T05:13:14.337Z,81263.00
2023-05-11T05:14:14.310Z,73877.00
2023-05-11T05:15:14.320Z,34519.00
2023-05-11T05:16:14.315Z,21478.00
2023-05-11T05:17:14.360Z,21602.00
2023-05-11T05:18:14.303Z,20589.00
2023-05-11T05:19:14.238Z,4624.00
2023-05-11T05:20:14.272Z,20964.00
2023-05-11T05:21:14.229Z,15778.00
2023-05-11T05:22:14.231Z,4835.00
2023-05-11T05:23:14.327Z,17271.00
2023-05-11T05:24:14.230Z,19985.00
2023-05-11T05:25:14.196Z,17172.00
2023-05-11T05:26:14.277Z,13754.00
2023-05-11T05:27:14.174Z,2815.00
2023-05-11T05:28:14.172Z,8833.00
2023-05-11T05:29:14.189Z,14632.00
2023-05-11T05:30:14.164Z,11901.00
2023-05-11T05:31:14.229Z,10342.00
2023-05-11T05:32:14.140Z,14476.00
2023-05-11T05:33:14.153Z,2782.00
2023-05-11T05:34:16.475Z,15971.00
2023-05-11T05:35:14.220Z,9759.00
2023-05-11T05:36:14.214Z,10789.00
2023-05-11T05:37:14.111Z,12437.00
2023-05-11T05:38:14.277Z,12370.00
2023-05-11T05:39:14.085Z,10262.00
2023-05-11T05:40:14.196Z,8856.00
2023-05-11T05:41:14.025Z,9836.00
2023-05-11T05:42:14.146Z,11055.00
2023-05-11T05:43:14.066Z,11894.00
2023-05-11T05:44:14.261Z,10792.00
2023-05-11T05:45:14.921Z,9934.00
2023-05-11T05:46:14.689Z,11240.00
2023-05-11T05:47:13.952Z,2340.00
2023-05-11T05:48:14.037Z,9937.00
2023-05-11T05:49:13.964Z,9378.00
2023-05-11T05:50:13.990Z,12155.00
2023-05-11T05:51:13.915Z,11621.00
2023-05-11T05:52:14.006Z,9858.00
2023-05-11T05:53:13.996Z,8923.00
2023-05-11T05:54:13.945Z,11630.00
2023-05-11T05:55:13.945Z,12217.00
2023-05-11T05:56:13.881Z,10020.00
2023-05-11T05:57:15.661Z,9396.00
2023-05-11T05:58:13.906Z,10995.00
2023-05-11T05:59:13.842Z,9702.00
2023-05-11T06:00:13.882Z,9934.00
2023-05-11T06:01:13.849Z,10594.00
2023-05-11T06:02:13.894Z,10509.00
2023-05-11T06:03:13.947Z,9555.00
2023-05-11T06:04:13.899Z,7314.00
2023-05-11T06:05:13.785Z,8936.00
2023-05-11T06:06:13.843Z,13132.00
2023-05-11T06:07:13.805Z,12046.00
2023-05-11T06:08:13.779Z,10320.00
2023-05-11T06:09:13.784Z,8834.00
2023-05-11T06:10:13.748Z,8655.00
2023-05-11T06:11:13.734Z,11831.00
2023-05-11T06:12:13.716Z,13332.00
2023-05-11T06:13:13.747Z,11302.00
2023-05-11T06:14:13.718Z,10801.00
2023-05-11T06:15:13.707Z,12780.00
2023-05-11T06:16:13.698Z,13306.00
2023-05-11T06:17:13.710Z,14427.00
2023-05-11T06:18:13.661Z,14912.00
2023-05-11T06:19:13.699Z,5693.00
2023-05-11T06:20:13.636Z,13786.00
2023-05-11T06:21:13.644Z,38274.00
2023-05-11T06:22:13.650Z,32999.00
2023-05-11T06:23:13.638Z,18814.00
2023-05-11T06:24:13.607Z,25240.00
2023-05-11T06:25:13.573Z,26800.00
2023-05-11T06:26:13.562Z,27842.00
2023-05-11T06:27:13.872Z,26481.00
2023-05-11T06:28:13.552Z,20746.00
2023-05-11T06:29:13.531Z,14817.00
2023-05-11T06:30:13.554Z,14160.00
2023-05-11T06:31:13.596Z,14008.00
2023-05-11T06:32:13.694Z,15880.00
2023-05-11T06:33:13.513Z,16435.00
2023-05-11T06:34:13.500Z,15719.00
2023-05-11T06:35:13.477Z,13607.00
2023-05-11T06:36:13.529Z,12305.00
2023-05-11T06:37:13.460Z,10862.00
2023-05-11T06:38:13.464Z,8906.00
2023-05-11T06:39:13.415Z,8416.00
2023-05-11T06:40:13.470Z,8226.00
2023-05-11T06:41:13.415Z,8628.00
2023-05-11T06:42:13.495Z,10291.00
2023-05-11T06:43:13.452Z,10144.00
2023-05-11T06:44:13.395Z,8466.00
2023-05-11T06:45:13.438Z,7205.00
2023-05-11T06:46:13.462Z,6778.00
2023-05-11T06:47:13.405Z,6817.00
2023-05-11T06:48:13.432Z,6700.00
2023-05-11T06:49:13.350Z,6986.00
2023-05-11T06:50:13.302Z,7131.00
2023-05-11T06:51:13.326Z,6538.00
2023-05-11T06:52:13.333Z,6249.00
2023-05-11T06:53:13.366Z,6048.00
2023-05-11T06:54:13.290Z,6010.00
2023-05-11T06:55:13.320Z,5964.00
2023-05-11T06:56:13.304Z,5892.00
2023-05-11T06:57:14.525Z,5624.00
2023-05-11T06:58:13.286Z,5564.00
2023-05-11T06:59:13.254Z,5594.00
2023-05-11T07:00:13.281Z,5638.00
2023-05-11T07:01:13.294Z,5590.00
2023-05-11T07:02:13.229Z,5607.00
2023-05-11T07:03:13.350Z,5617.00
2023-05-11T07:04:13.200Z,5871.00
2023-05-11T07:05:13.187Z,5389.00
2023-05-11T07:06:13.208Z,4643.00
2023-05-11T07:07:13.221Z,4482.00
2023-05-11T07:08:13.147Z,4528.00
2023-05-11T07:09:13.193Z,4567.00
2023-05-11T07:10:13.178Z,4551.00
2023-05-11T07:11:13.146Z,4529.00
2023-05-11T07:12:13.166Z,4511.00
2023-05-11T07:13:13.148Z,4515.00
2023-05-11T07:14:13.083Z,4524.00
2023-05-11T07:15:13.090Z,4518.00
2023-05-11T07:16:13.135Z,4532.00
2023-05-11T07:17:13.110Z,4499.00
2023-05-11T07:18:13.054Z,4507.00
2023-05-11T07:19:13.096Z,4500.00
2023-05-11T07:20:13.086Z,4487.00
2023-05-11T07:21:13.027Z,4468.00
2023-05-11T07:22:15.043Z,4454.00
2023-05-11T07:23:13.015Z,4435.00
2023-05-11T07:24:13.079Z,4390.00
2023-05-11T07:25:13.018Z,4391.00
2023-05-11T07:26:12.996Z,4395.00
2023-05-11T07:27:12.938Z,4397.00
2023-05-11T07:28:12.994Z,4383.00
2023-05-11T07:29:12.969Z,4418.00
2023-05-11T07:30:12.921Z,4391.00
2023-05-11T07:31:12.928Z,4398.00
2023-05-11T07:32:12.908Z,4390.00
2023-05-11T07:33:12.853Z,4415.00
2023-05-11T07:34:12.927Z,4424.00
2023-05-11T07:35:12.861Z,4433.00
2023-05-11T07:36:12.817Z,4441.00
2023-05-11T07:37:12.839Z,4426.00
2023-05-11T07:38:12.900Z,4439.00
2023-05-11T07:39:12.810Z,4423.00
2023-05-11T07:40:12.798Z,4459.00
2023-05-11T07:41:13.011Z,4478.00
2023-05-11T07:42:12.872Z,4497.00
2023-05-11T07:43:12.779Z,4480.00
2023-05-11T07:44:12.771Z,4506.00
2023-05-11T07:45:12.825Z,4440.00
2023-05-11T07:46:12.791Z,4501.00
2023-05-11T07:47:12.765Z,4464.00
2023-05-11T07:48:12.780Z,4520.00
2023-05-11T07:49:17.062Z,4531.00
2023-05-11T07:50:13.687Z,4537.00
2023-05-11T07:51:12.916Z,4587.00
2023-05-11T07:52:12.692Z,4558.00
2023-05-11T07:53:12.743Z,4586.00
2023-05-11T07:54:12.657Z,4602.00
2023-05-11T07:55:12.652Z,4576.00
2023-05-11T07:56:12.672Z,4611.00
2023-05-11T07:57:12.666Z,4628.00
2023-05-11T07:58:12.813Z,4672.00
2023-05-11T07:59:12.628Z,4651.00
2023-05-11T08:00:12.637Z,4657.00
2023-05-11T08:01:12.624Z,4764.00
2023-05-11T08:02:13.499Z,4722.00
2023-05-11T08:03:12.672Z,4788.00
2023-05-11T08:04:12.558Z,4745.00
2023-05-11T08:05:12.619Z,4816.00
2023-05-11T08:06:12.624Z,4814.00
2023-05-11T08:07:12.504Z,4835.00
2023-05-11T08:08:12.566Z,4843.00
2023-05-11T08:09:12.514Z,4891.00
2023-05-11T08:10:12.851Z,4919.00
2023-05-11T08:11:12.562Z,4939.00
2023-05-11T08:12:12.586Z,4957.00
2023-05-11T08:13:12.460Z,4994.00
2023-05-11T08:14:12.429Z,4978.00
2023-05-11T08:15:12.736Z,5028.00
2023-05-11T08:16:12.608Z,5020.00
2023-05-11T08:17:12.465Z,5023.00
2023-05-11T08:18:12.525Z,5060.00
2023-05-11T08:19:12.597Z,5075.00
2023-05-11T08:20:12.455Z,5095.00
2023-05-11T08:21:12.533Z,5104.00
2023-05-11T08:22:12.470Z,5066.00
2023-05-11T08:23:12.357Z,5138.00
2023-05-11T08:24:12.639Z,5145.00
2023-05-11T08:25:12.331Z,5187.00
2023-05-11T08:26:12.450Z,5221.00
2023-05-11T08:27:12.348Z,5149.00
2023-05-11T08:28:13.292Z,5213.00
2023-05-11T08:29:12.316Z,5211.00
2023-05-11T08:30:12.505Z,5256.00
2023-05-11T08:31:12.376Z,5316.00
2023-05-11T08:32:12.726Z,5267.00
2023-05-11T08:33:33.806Z,5306.00
2023-05-11T08:34:18.995Z,5365.00
2023-05-11T08:35:13.315Z,5388.00
2023-05-11T08:36:12.292Z,5390.00
2023-05-11T08:37:12.237Z,5370.00
2023-05-11T08:38:12.232Z,5425.00
2023-05-11T08:39:12.178Z,5437.00
2023-05-11T08:40:14.678Z,5494.00
2023-05-11T08:41:12.196Z,5476.00
2023-05-11T08:42:12.662Z,5507.00
2023-05-11T08:43:12.136Z,5490.00
2023-05-11T08:44:12.195Z,5513.00
2023-05-11T08:45:12.135Z,5469.00
2023-05-11T08:46:12.140Z,5557.00
2023-05-11T08:47:22.796Z,5554.00
2023-05-11T08:48:13.200Z,5535.00
2023-05-11T08:49:12.083Z,5520.00
2023-05-11T08:50:12.084Z,5553.00
2023-05-11T08:51:12.122Z,5527.00
2023-05-11T08:52:12.065Z,5598.00
2023-05-11T08:53:12.118Z,5696.00
2023-05-11T08:54:12.029Z,5638.00
2023-05-11T08:55:12.075Z,5674.00
2023-05-11T08:56:12.011Z,5684.00
2023-05-11T08:57:12.006Z,5710.00
2023-05-11T08:58:12.007Z,5738.00
2023-05-11T08:59:12.048Z,5758.00
2023-05-11T09:00:11.998Z,5763.00
2023-05-11T09:01:11.983Z,5788.00
2023-05-11T09:02:11.968Z,5846.00
2023-05-11T09:03:12.010Z,5839.00
2023-05-11T09:04:11.939Z,5830.00
2023-05-11T09:05:12.006Z,5859.00
2023-05-11T09:06:11.902Z,5909.00
2023-05-11T09:07:11.892Z,5949.00
2023-05-11T09:08:11.899Z,5950.00
2023-05-11T09:09:11.882Z,5915.00
2023-05-11T09:10:13.833Z,5964.00
2023-05-11T09:11:11.868Z,6015.00
2023-05-11T09:12:11.917Z,5999.00
2023-05-11T09:13:11.818Z,6032.00
2023-05-11T09:14:11.993Z,6043.00
2023-05-11T09:15:11.894Z,6211.00
2023-05-11T09:16:24.377Z,6202.00
2023-05-11T09:17:12.927Z,6204.00
2023-05-11T09:18:11.940Z,6289.00
2023-05-11T09:19:11.918Z,7263.00
2023-05-11T09:20:11.745Z,1929.00
2023-05-11T09:21:11.850Z,6512.00
2023-05-11T09:22:11.801Z,3405.00
2023-05-11T09:23:11.705Z,3773.00
2023-05-11T09:24:11.758Z,4187.00
2023-05-11T09:25:11.682Z,1249.00
2023-05-11T09:26:11.741Z,8463.00
2023-05-11T09:27:11.703Z,3848.00
2023-05-11T09:28:15.645Z,6778.00
2023-05-11T09:29:11.697Z,7479.00
2023-05-11T09:30:11.685Z,1543.00
2023-05-11T09:31:11.701Z,7930.00
2023-05-11T09:32:11.670Z,5184.00
2023-05-11T09:33:11.747Z,7713.00
2023-05-11T09:34:11.612Z,4639.00
2023-05-11T09:35:11.634Z,2619.00
2023-05-11T09:36:11.595Z,1554.00
2023-05-11T09:37:11.604Z,8608.00
2023-05-11T09:38:11.572Z,2087.00
2023-05-11T09:39:15.322Z,7493.00
2023-05-11T09:41:11.555Z,1431.00
2023-05-11T09:42:11.660Z,7128.00
2023-05-11T09:43:11.516Z,7338.00
2023-05-11T09:44:11.523Z,8097.00
2023-05-11T09:45:11.540Z,3323.00
2023-05-11T09:46:11.559Z,1801.00
2023-05-11T09:47:11.526Z,7635.00
2023-05-11T09:48:11.601Z,8133.00
2023-05-11T09:49:11.480Z,4604.00
2023-05-11T09:50:11.486Z,3895.00
2023-05-11T09:51:11.437Z,1706.00
2023-05-11T09:52:11.634Z,7991.00
2023-05-11T09:53:12.377Z,7629.00
2023-05-11T09:54:11.451Z,7793.00
2023-05-11T09:55:11.442Z,7924.00
2023-05-11T09:56:11.462Z,8227.00
2023-05-11T09:57:11.391Z,10548.00
2023-05-11T09:58:11.396Z,3504.00
2023-05-11T09:59:11.388Z,8414.00
2023-05-11T10:00:11.436Z,8187.00
2023-05-11T10:01:11.395Z,8492.00
2023-05-11T10:02:11.370Z,8750.00
2023-05-11T10:03:11.365Z,8986.00
2023-05-11T10:04:22.277Z,9250.00
2023-05-11T10:05:12.310Z,9229.00
2023-05-11T10:06:11.330Z,9087.00
2023-05-11T10:07:11.342Z,8861.00
2023-05-11T10:08:11.284Z,8779.00
2023-05-11T10:09:11.319Z,8800.00
2023-05-11T10:10:11.315Z,8746.00
2023-05-11T10:11:11.278Z,8950.00
2023-05-11T10:12:11.249Z,8975.00
2023-05-11T10:13:11.382Z,8749.00
2023-05-11T10:14:11.217Z,8663.00
2023-05-11T10:15:11.221Z,8606.00
2023-05-11T10:16:11.248Z,8523.00
2023-05-11T10:17:11.200Z,10312.00
2023-05-11T10:18:11.249Z,2103.00
2023-05-11T10:19:11.290Z,10922.00
2023-05-11T10:20:11.195Z,5868.00
2023-05-11T10:21:11.196Z,8969.00
2023-05-11T10:22:11.222Z,9246.00
2023-05-11T10:23:11.147Z,9060.00
2023-05-11T10:24:11.200Z,9285.00
2023-05-11T10:25:11.136Z,11118.00
2023-05-11T10:26:11.138Z,2701.00
2023-05-11T10:27:11.117Z,9857.00
2023-05-11T10:28:11.100Z,8034.00
2023-05-11T10:29:11.108Z,9011.00
2023-05-11T10:30:11.066Z,9436.00
2023-05-11T10:31:11.076Z,9729.00
2023-05-11T10:32:11.153Z,7882.00
2023-05-11T10:33:11.054Z,8804.00
2023-05-11T10:34:11.041Z,8934.00
2023-05-11T10:35:11.001Z,9419.00
2023-05-11T10:36:11.000Z,4937.00
2023-05-11T10:37:11.010Z,3451.00
2023-05-11T10:38:10.996Z,5875.00
2023-05-11T10:39:10.958Z,2335.00
2023-05-11T10:40:10.968Z,8992.00
2023-05-11T10:41:10.918Z,8927.00
2023-05-11T10:42:10.964Z,9322.00
2023-05-11T10:43:10.933Z,9255.00
2023-05-11T10:44:10.901Z,9302.00
2023-05-11T10:45:10.915Z,8974.00
2023-05-11T10:46:10.914Z,8841.00
2023-05-11T10:47:10.931Z,9196.00
2023-05-11T10:48:10.893Z,9123.00
2023-05-11T10:49:10.893Z,11426.00
2023-05-11T10:50:10.860Z,9683.00
2023-05-11T10:51:10.883Z,7992.00
2023-05-11T10:52:10.811Z,6102.00
2023-05-11T10:53:10.823Z,5923.00
2023-05-11T10:54:10.817Z,6055.00
2023-05-11T10:55:10.833Z,6355.00
2023-05-11T10:56:10.817Z,6447.00
2023-05-11T10:57:10.793Z,6586.00
2023-05-11T10:58:10.786Z,6550.00
2023-05-11T10:59:10.739Z,6393.00
2023-05-11T11:00:10.764Z,7044.00
2023-05-11T11:01:10.797Z,6622.00
2023-05-11T11:02:10.782Z,5696.00
2023-05-11T11:03:10.785Z,2977.00
2023-05-11T11:04:10.674Z,10239.00
2023-05-11T11:05:10.820Z,9967.00
2023-05-11T11:06:10.645Z,10224.00
2023-05-11T11:07:10.691Z,11345.00
2023-05-11T11:08:10.650Z,6360.00
2023-05-11T11:09:10.667Z,6129.00
2023-05-11T11:10:10.662Z,5855.00
2023-05-11T11:11:10.617Z,5599.00
2023-05-11T11:12:10.618Z,5413.00
2023-05-11T11:13:10.617Z,5329.00
2023-05-11T11:14:10.615Z,5299.00
2023-05-11T11:15:10.630Z,5311.00
2023-05-11T11:16:10.628Z,5197.00
2023-05-11T11:17:10.633Z,5069.00
2023-05-11T11:18:10.597Z,2000.00
2023-05-11T11:19:10.703Z,7216.00
2023-05-11T11:20:10.534Z,9523.00
2023-05-11T11:21:10.590Z,9412.00
2023-05-11T11:22:10.506Z,9485.00
2023-05-11T11:23:10.775Z,9757.00
2023-05-11T11:24:10.477Z,12074.00
2023-05-11T11:25:10.469Z,8011.00
2023-05-11T11:26:10.493Z,5578.00
2023-05-11T11:27:10.523Z,5505.00
2023-05-11T11:28:10.438Z,5510.00
2023-05-11T11:29:10.464Z,5478.00
2023-05-11T11:30:10.402Z,5375.00
2023-05-11T11:31:10.466Z,5345.00
2023-05-11T11:32:10.488Z,5310.00
2023-05-11T11:33:10.439Z,5412.00
2023-05-11T11:34:10.384Z,5404.00
2023-05-11T11:35:10.416Z,5288.00
2023-05-11T11:36:10.390Z,5161.00
2023-05-11T11:37:10.360Z,4912.00
2023-05-11T11:38:10.340Z,4826.00
2023-05-11T11:39:10.353Z,4631.00
2023-05-11T11:40:15.273Z,4668.00
2023-05-11T11:41:11.342Z,4732.00
2023-05-11T11:42:10.332Z,4706.00
2023-05-11T11:43:10.295Z,4809.00
2023-05-11T11:44:10.262Z,4906.00
2023-05-11T11:45:10.261Z,5021.00
2023-05-11T11:46:10.305Z,5108.00
2023-05-11T11:47:10.303Z,5303.00
2023-05-11T11:48:10.288Z,5447.00
2023-05-11T11:49:10.234Z,5487.00
2023-05-11T11:50:10.260Z,5437.00
2023-05-11T11:51:10.218Z,5377.00
2023-05-11T11:52:10.230Z,5379.00
2023-05-11T11:53:10.177Z,5448.00
2023-05-11T11:54:10.193Z,5569.00
2023-05-11T11:55:10.167Z,5703.00
2023-05-11T11:56:10.143Z,5766.00
2023-05-11T11:57:10.131Z,5881.00
2023-05-11T11:58:10.145Z,5990.00
2023-05-11T11:59:10.111Z,6148.00
2023-05-11T12:00:10.159Z,6266.00
2023-05-11T12:01:10.093Z,6340.00
2023-05-11T12:02:10.082Z,6378.00
2023-05-11T12:03:10.154Z,6484.00
2023-05-11T12:04:10.251Z,6621.00
2023-05-11T12:05:10.149Z,6779.00
2023-05-11T12:06:10.034Z,6914.00
2023-05-11T12:07:10.052Z,7041.00
2023-05-11T12:08:10.108Z,7102.00
2023-05-11T12:09:10.027Z,7284.00
2023-05-11T12:10:10.175Z,7405.00
2023-05-11T12:11:10.098Z,7495.00
2023-05-11T12:12:09.951Z,7615.00
2023-05-11T12:13:09.938Z,7823.00
2023-05-11T12:14:09.940Z,7815.00
2023-05-11T12:15:09.951Z,7935.00
2023-05-11T12:16:10.006Z,8088.00
2023-05-11T12:17:09.959Z,8166.00
2023-05-11T12:18:10.020Z,8162.00
2023-05-11T12:19:09.962Z,8242.00
2023-05-11T12:20:09.884Z,8144.00
2023-05-11T12:21:09.934Z,8112.00
2023-05-11T12:22:09.850Z,7330.00